sensor_id;sensor_type;location;lat;lon;timestamp;temperature;humidity
3756;DHT22;1893;52.526;13.360;2022-08-11T00:01:36;19.90;99.90
3756;DHT22;1893;52.526;13.360;2022-08-11T00:04:07;19.80;99.90
3756;DHT22;1893;52.526;13.360;2022-08-11T00:06:37;19.80;99.90
3756;DHT22;1893;52.526;13.360;2022-08-11T00:09:09;19.80;99.90
3756;DHT22;1893;52.526;13.360;2022-08-11T00:11:50;19.90;99.90
3756;DHT22;1893;52.526;13.360;2022-08-11T00:16:57;19.90;99.90
3756;DHT22;1893;52.526;13.360;2022-08-11T00:19:27;19.80;99.90
3756;DHT22;1893;52.526;13.360;2022-08-11T00:21:55;19.80;99.90
3756;DHT22;1893;52.526;13.360;2022-08-11T00:24:22;19.70;99.90
3756;DHT22;1893;52.526;13.360;2022-08-11T00:26:51;19.70;99.90
3756;DHT22;1893;52.526;13.360;2022-08-11T00:29:20;19.70;99.90
3756;DHT22;1893;52.526;13.360;2022-08-11T00:31:56;19.70;99.90
3756;DHT22;1893;52.526;13.360;2022-08-11T00:34:28;19.60;99.90
3756;DHT22;1893;52.526;13.360;2022-08-11T00:37:04;19.60;99.90
3756;DHT22;1893;52.526;13.360;2022-08-11T00:39:33;19.60;99.90
3756;DHT22;1893;52.526;13.360;2022-08-11T00:42:11;19.60;99.90
3756;DHT22;1893;52.526;13.360;2022-08-11T00:47:25;19.50;99.90
3756;DHT22;1893;52.526;13.360;2022-08-11T00:50:00;19.50;99.90
3756;DHT22;1893;52.526;13.360;2022-08-11T01:20:57;19.00;99.90
3756;DHT22;1893;52.526;13.360;2022-08-11T01:31:49;18.80;99.90
3756;DHT22;1893;52.526;13.360;2022-08-11T01:54:19;18.80;99.90
3756;DHT22;1893;52.526;13.360;2022-08-11T01:59:33;18.70;99.90
3756;DHT22;1893;52.526;13.360;2022-08-11T02:10:45;18.60;99.90
3756;DHT22;1893;52.526;13.360;2022-08-11T02:22:04;18.60;99.90
3756;DHT22;1893;52.526;13.360;2022-08-11T02:24:56;18.60;99.90
3756;DHT22;1893;52.526;13.360;2022-08-11T02:27:31;18.60;99.90
3756;DHT22;1893;52.526;13.360;2022-08-11T02:30:06;18.50;99.90
3756;DHT22;1893;52.526;13.360;2022-08-11T02:32:35;18.50;99.90
3756;DHT22;1893;52.526;13.360;2022-08-11T02:40:59;18.40;99.90
3756;DHT22;1893;52.526;13.360;2022-08-11T02:44:00;18.30;99.90
3756;DHT22;1893;52.526;13.360;2022-08-11T02:46:35;18.40;99.90
3756;DHT22;1893;52.526;13.360;2022-08-11T02:54:43;18.20;99.90
3756;DHT22;1893;52.526;13.360;2022-08-11T02:57:24;18.20;99.90
3756;DHT22;1893;52.526;13.360;2022-08-11T03:00:07;18.10;99.90
3756;DHT22;1893;52.526;13.360;2022-08-11T03:05:35;18.10;99.90
3756;DHT22;1893;52.526;13.360;2022-08-11T03:10:53;18.10;99.90
3756;DHT22;1893;52.526;13.360;2022-08-11T03:13:45;18.20;99.90
3756;DHT22;1893;52.526;13.360;2022-08-11T03:16:55;18.00;99.90
3756;DHT22;1893;52.526;13.360;2022-08-11T03:22:13;18.10;1.00
3756;DHT22;1893;52.526;13.360;2022-08-11T03:27:23;17.90;1.00
3756;DHT22;1893;52.526;13.360;2022-08-11T03:38:49;17.90;1.00
3756;DHT22;1893;52.526;13.360;2022-08-11T03:41:39;17.90;1.00
3756;DHT22;1893;52.526;13.360;2022-08-11T03:44:33;17.80;1.00
3756;DHT22;1893;52.526;13.360;2022-08-11T04:04:28;17.80;1.00
3756;DHT22;1893;52.526;13.360;2022-08-11T04:07:34;17.70;1.00
3756;DHT22;1893;52.526;13.360;2022-08-11T04:19:16;17.70;1.00
3756;DHT22;1893;52.526;13.360;2022-08-11T04:24:57;17.80;1.00
3756;DHT22;1893;52.526;13.360;2022-08-11T04:27:48;17.90;1.00
3756;DHT22;1893;52.526;13.360;2022-08-11T04:30:57;17.90;1.00
3756;DHT22;1893;52.526;13.360;2022-08-11T04:36:34;18.10;1.00
3756;DHT22;1893;52.526;13.360;2022-08-11T04:39:37;18.10;1.00
3756;DHT22;1893;52.526;13.360;2022-08-11T04:48:25;18.30;99.90
3756;DHT22;1893;52.526;13.360;2022-08-11T05:13:04;19.00;99.90
3756;DHT22;1893;52.526;13.360;2022-08-11T05:15:54;19.10;99.90
3756;DHT22;1893;52.526;13.360;2022-08-11T05:18:48;19.20;99.90
3756;DHT22;1893;52.526;13.360;2022-08-11T05:21:55;19.30;99.90
3756;DHT22;1893;52.526;13.360;2022-08-11T05:24:46;19.40;99.90
3756;DHT22;1893;52.526;13.360;2022-08-11T05:27:58;19.50;99.90
3756;DHT22;1893;52.526;13.360;2022-08-11T05:30:46;19.60;99.90
3756;DHT22;1893;52.526;13.360;2022-08-11T05:34:21;19.70;99.90
3756;DHT22;1893;52.526;13.360;2022-08-11T05:37:13;19.90;99.90
3756;DHT22;1893;52.526;13.360;2022-08-11T05:39:44;19.90;99.90
3756;DHT22;1893;52.526;13.360;2022-08-11T05:42:31;20.00;99.90
3756;DHT22;1893;52.526;13.360;2022-08-11T05:45:17;20.10;99.90
3756;DHT22;1893;52.526;13.360;2022-08-11T05:48:03;20.20;99.90
3756;DHT22;1893;52.526;13.360;2022-08-11T05:50:57;20.20;99.90
3756;DHT22;1893;52.526;13.360;2022-08-11T05:53:44;20.30;99.90
3756;DHT22;1893;52.526;13.360;2022-08-11T05:56:32;20.30;99.90
3756;DHT22;1893;52.526;13.360;2022-08-11T05:58:58;20.40;99.90
3756;DHT22;1893;52.526;13.360;2022-08-11T06:01:27;20.60;99.90
3756;DHT22;1893;52.526;13.360;2022-08-11T06:03:57;20.60;99.90
3756;DHT22;1893;52.526;13.360;2022-08-11T06:06:57;20.70;99.90
3756;DHT22;1893;52.526;13.360;2022-08-11T06:09:37;20.70;99.90
3756;DHT22;1893;52.526;13.360;2022-08-11T06:12:07;20.90;99.90
3756;DHT22;1893;52.526;13.360;2022-08-11T06:14:44;21.00;99.90
3756;DHT22;1893;52.526;13.360;2022-08-11T06:17:11;21.00;99.90
3756;DHT22;1893;52.526;13.360;2022-08-11T06:19:40;21.10;99.90
3756;DHT22;1893;52.526;13.360;2022-08-11T06:22:09;21.20;99.90
3756;DHT22;1893;52.526;13.360;2022-08-11T06:24:40;21.20;99.90
3756;DHT22;1893;52.526;13.360;2022-08-11T06:27:07;21.30;99.90
3756;DHT22;1893;52.526;13.360;2022-08-11T06:29:35;21.40;99.90
3756;DHT22;1893;52.526;13.360;2022-08-11T06:32:07;21.40;99.90
3756;DHT22;1893;52.526;13.360;2022-08-11T06:35:03;21.50;99.90
3756;DHT22;1893;52.526;13.360;2022-08-11T06:43:43;21.50;99.90
3756;DHT22;1893;52.526;13.360;2022-08-11T06:45:54;21.60;99.90
3756;DHT22;1893;52.526;13.360;2022-08-11T06:48:23;21.50;99.90
3756;DHT22;1893;52.526;13.360;2022-08-11T06:50:52;21.70;99.90
3756;DHT22;1893;52.526;13.360;2022-08-11T06:53:48;21.70;99.90
3756;DHT22;1893;52.526;13.360;2022-08-11T06:56:21;21.90;99.90
3756;DHT22;1893;52.526;13.360;2022-08-11T06:59:20;22.00;99.90
3756;DHT22;1893;52.526;13.360;2022-08-11T07:02:19;22.00;99.90
3756;DHT22;1893;52.526;13.360;2022-08-11T07:05:00;22.20;99.90
3756;DHT22;1893;52.526;13.360;2022-08-11T07:13:51;22.60;99.90
3756;DHT22;1893;52.526;13.360;2022-08-11T07:16:40;22.90;99.90
3756;DHT22;1893;52.526;13.360;2022-08-11T07:19:09;23.10;99.90
3756;DHT22;1893;52.526;13.360;2022-08-11T07:21:55;23.30;99.90
3756;DHT22;1893;52.526;13.360;2022-08-11T07:24:45;23.60;99.90
3756;DHT22;1893;52.526;13.360;2022-08-11T07:27:42;23.70;99.90
3756;DHT22;1893;52.526;13.360;2022-08-11T07:30:28;24.30;99.90
3756;DHT22;1893;52.526;13.360;2022-08-11T07:32:58;24.80;99.90
3756;DHT22;1893;52.526;13.360;2022-08-11T07:35:33;25.00;99.90
3756;DHT22;1893;52.526;13.360;2022-08-11T07:38:06;25.30;99.90
3756;DHT22;1893;52.526;13.360;2022-08-11T07:40:33;25.50;99.90
3756;DHT22;1893;52.526;13.360;2022-08-11T07:42:59;25.70;97.80
3756;DHT22;1893;52.526;13.360;2022-08-11T07:45:26;25.70;96.80
3756;DHT22;1893;52.526;13.360;2022-08-11T07:48:13;25.60;93.80
3756;DHT22;1893;52.526;13.360;2022-08-11T07:50:58;25.30;90.90
3756;DHT22;1893;52.526;13.360;2022-08-11T07:53:44;25.40;91.50
3756;DHT22;1893;52.526;13.360;2022-08-11T07:56:10;25.30;90.00
3756;DHT22;1893;52.526;13.360;2022-08-11T07:58:40;25.40;90.20
3756;DHT22;1893;52.526;13.360;2022-08-11T08:01:25;25.40;87.70
3756;DHT22;1893;52.526;13.360;2022-08-11T08:04:12;25.40;88.20
3756;DHT22;1893;52.526;13.360;2022-08-11T08:06:57;25.20;78.90
3756;DHT22;1893;52.526;13.360;2022-08-11T08:09:42;25.50;80.20
3756;DHT22;1893;52.526;13.360;2022-08-11T08:12:28;25.70;81.50
3756;DHT22;1893;52.526;13.360;2022-08-11T08:15:14;26.10;80.20
3756;DHT22;1893;52.526;13.360;2022-08-11T08:18:00;26.20;79.40
3756;DHT22;1893;52.526;13.360;2022-08-11T08:20:33;26.30;76.10
3756;DHT22;1893;52.526;13.360;2022-08-11T08:23:02;26.30;67.10
3756;DHT22;1893;52.526;13.360;2022-08-11T08:25:31;26.10;65.90
3756;DHT22;1893;52.526;13.360;2022-08-11T08:27:59;26.30;72.10
3756;DHT22;1893;52.526;13.360;2022-08-11T08:30:27;26.30;62.20
3756;DHT22;1893;52.526;13.360;2022-08-11T08:33:19;26.30;59.00
3756;DHT22;1893;52.526;13.360;2022-08-11T08:35:47;26.30;59.40
3756;DHT22;1893;52.526;13.360;2022-08-11T08:38:13;26.00;54.10
3756;DHT22;1893;52.526;13.360;2022-08-11T08:40:41;26.10;56.00
3756;DHT22;1893;52.526;13.360;2022-08-11T08:43:10;26.40;59.00
3756;DHT22;1893;52.526;13.360;2022-08-11T08:45:41;26.50;57.50
3756;DHT22;1893;52.526;13.360;2022-08-11T08:48:14;26.60;75.30
3756;DHT22;1893;52.526;13.360;2022-08-11T08:50:52;26.80;54.80
3756;DHT22;1893;52.526;13.360;2022-08-11T08:53:39;26.80;52.20
3756;DHT22;1893;52.526;13.360;2022-08-11T08:56:06;27.10;54.30
3756;DHT22;1893;52.526;13.360;2022-08-11T08:58:35;27.40;55.30
3756;DHT22;1893;52.526;13.360;2022-08-11T09:01:02;27.40;53.30
3756;DHT22;1893;52.526;13.360;2022-08-11T09:03:29;27.40;52.80
3756;DHT22;1893;52.526;13.360;2022-08-11T09:05:55;27.60;53.40
3756;DHT22;1893;52.526;13.360;2022-08-11T09:08:21;27.70;51.30
3756;DHT22;1893;52.526;13.360;2022-08-11T09:10:48;27.80;51.10
3756;DHT22;1893;52.526;13.360;2022-08-11T09:13:34;28.00;50.50
3756;DHT22;1893;52.526;13.360;2022-08-11T09:16:01;28.10;48.70
3756;DHT22;1893;52.526;13.360;2022-08-11T09:18:26;28.10;46.60
3756;DHT22;1893;52.526;13.360;2022-08-11T09:20:52;28.10;47.30
3756;DHT22;1893;52.526;13.360;2022-08-11T09:23:18;28.30;46.90
3756;DHT22;1893;52.526;13.360;2022-08-11T09:26:03;28.30;46.00
3756;DHT22;1893;52.526;13.360;2022-08-11T09:28:48;28.10;39.40
3756;DHT22;1893;52.526;13.360;2022-08-11T09:31:15;27.80;38.10
3756;DHT22;1893;52.526;13.360;2022-08-11T09:33:42;27.80;35.80
3756;DHT22;1893;52.526;13.360;2022-08-11T09:36:10;27.70;33.50
3756;DHT22;1893;52.526;13.360;2022-08-11T09:38:55;27.80;36.10
3756;DHT22;1893;52.526;13.360;2022-08-11T09:41:40;28.20;36.30
3756;DHT22;1893;52.526;13.360;2022-08-11T09:44:08;28.30;36.60
3756;DHT22;1893;52.526;13.360;2022-08-11T09:46:54;28.20;33.80
3756;DHT22;1893;52.526;13.360;2022-08-11T09:49:22;27.90;31.10
3756;DHT22;1893;52.526;13.360;2022-08-11T09:51:48;27.70;30.00
3756;DHT22;1893;52.526;13.360;2022-08-11T09:54:15;28.00;30.80
3756;DHT22;1893;52.526;13.360;2022-08-11T09:56:42;28.10;30.00
3756;DHT22;1893;52.526;13.360;2022-08-11T09:59:27;28.50;31.50
3756;DHT22;1893;52.526;13.360;2022-08-11T10:01:59;28.60;31.30
3756;DHT22;1893;52.526;13.360;2022-08-11T10:04:32;28.70;30.20
3756;DHT22;1893;52.526;13.360;2022-08-11T10:07:03;29.00;31.00
3756;DHT22;1893;52.526;13.360;2022-08-11T10:09:57;29.50;33.00
3756;DHT22;1893;52.526;13.360;2022-08-11T10:12:31;30.00;37.10
3756;DHT22;1893;52.526;13.360;2022-08-11T10:15:07;30.80;40.60
3756;DHT22;1893;52.526;13.360;2022-08-11T10:17:56;31.60;45.00
3756;DHT22;1893;52.526;13.360;2022-08-11T10:20:41;32.50;49.70
3756;DHT22;1893;52.526;13.360;2022-08-11T10:23:11;33.40;54.80
3756;DHT22;1893;52.526;13.360;2022-08-11T10:25:56;33.40;52.00
3756;DHT22;1893;52.526;13.360;2022-08-11T10:28:40;32.30;45.40
3756;DHT22;1893;52.526;13.360;2022-08-11T10:31:07;32.90;49.60
3756;DHT22;1893;52.526;13.360;2022-08-11T10:33:51;33.90;54.90
3756;DHT22;1893;52.526;13.360;2022-08-11T10:36:35;32.20;44.60
3756;DHT22;1893;52.526;13.360;2022-08-11T10:39:13;32.40;41.90
3756;DHT22;1893;52.526;13.360;2022-08-11T10:41:45;33.50;48.20
3756;DHT22;1893;52.526;13.360;2022-08-11T10:44:44;34.20;52.40
3756;DHT22;1893;52.526;13.360;2022-08-11T10:47:13;33.80;47.30
3756;DHT22;1893;52.526;13.360;2022-08-11T10:49:58;34.60;50.20
3756;DHT22;1893;52.526;13.360;2022-08-11T10:52:44;34.40;46.80
3756;DHT22;1893;52.526;13.360;2022-08-11T10:55:30;34.40;45.10
3756;DHT22;1893;52.526;13.360;2022-08-11T10:58:15;34.30;40.60
3756;DHT22;1893;52.526;13.360;2022-08-11T11:01:01;34.50;39.30
3756;DHT22;1893;52.526;13.360;2022-08-11T11:03:29;34.70;37.70
3756;DHT22;1893;52.526;13.360;2022-08-11T11:06:02;34.40;32.30
3756;DHT22;1893;52.526;13.360;2022-08-11T11:08:30;33.60;24.20
3756;DHT22;1893;52.526;13.360;2022-08-11T11:11:17;31.90;14.30
3756;DHT22;1893;52.526;13.360;2022-08-11T11:13:46;30.90;6.90
3756;DHT22;1893;52.526;13.360;2022-08-11T11:16:32;31.30;9.10
3756;DHT22;1893;52.526;13.360;2022-08-11T11:19:16;32.70;14.50
3756;DHT22;1893;52.526;13.360;2022-08-11T11:21:47;33.60;18.20
3756;DHT22;1893;52.526;13.360;2022-08-11T11:24:36;34.50;20.90
3756;DHT22;1893;52.526;13.360;2022-08-11T11:27:41;35.30;23.00
3756;DHT22;1893;52.526;13.360;2022-08-11T11:30:13;36.40;27.30
3756;DHT22;1893;52.526;13.360;2022-08-11T11:33:01;35.70;20.50
3756;DHT22;1893;52.526;13.360;2022-08-11T11:37:57;35.50;14.00
3756;DHT22;1893;52.526;13.360;2022-08-11T11:40:23;34.80;9.00
3756;DHT22;1893;52.526;13.360;2022-08-11T11:42:51;34.40;4.10
3756;DHT22;1893;52.526;13.360;2022-08-11T11:45:20;33.40;1.00
3756;DHT22;1893;52.526;13.360;2022-08-11T11:47:48;32.60;1.00
3756;DHT22;1893;52.526;13.360;2022-08-11T11:50:22;32.70;1.00
3756;DHT22;1893;52.526;13.360;2022-08-11T11:52:49;32.40;1.00
3756;DHT22;1893;52.526;13.360;2022-08-11T11:55:17;32.20;1.00
3756;DHT22;1893;52.526;13.360;2022-08-11T11:57:44;32.10;1.00
3756;DHT22;1893;52.526;13.360;2022-08-11T12:00:28;32.10;1.00
3756;DHT22;1893;52.526;13.360;2022-08-11T12:03:13;32.00;1.00
3756;DHT22;1893;52.526;13.360;2022-08-11T12:05:41;31.90;1.00
3756;DHT22;1893;52.526;13.360;2022-08-11T12:08:08;31.20;1.00
3756;DHT22;1893;52.526;13.360;2022-08-11T12:10:51;30.90;1.00
3756;DHT22;1893;52.526;13.360;2022-08-11T12:13:38;31.00;1.00
3756;DHT22;1893;52.526;13.360;2022-08-11T12:16:09;30.90;1.00
3756;DHT22;1893;52.526;13.360;2022-08-11T12:18:36;31.10;1.00
3756;DHT22;1893;52.526;13.360;2022-08-11T12:21:03;31.20;1.00
3756;DHT22;1893;52.526;13.360;2022-08-11T12:23:31;31.00;1.00
3756;DHT22;1893;52.526;13.360;2022-08-11T12:26:17;31.20;1.00
3756;DHT22;1893;52.526;13.360;2022-08-11T12:29:03;31.20;1.00
3756;DHT22;1893;52.526;13.360;2022-08-11T12:31:30;31.20;1.00
3756;DHT22;1893;52.526;13.360;2022-08-11T12:34:14;31.20;1.00
3756;DHT22;1893;52.526;13.360;2022-08-11T12:36:40;31.30;1.00
3756;DHT22;1893;52.526;13.360;2022-08-11T12:39:11;30.80;1.00
3756;DHT22;1893;52.526;13.360;2022-08-11T12:41:39;30.20;1.00
3756;DHT22;1893;52.526;13.360;2022-08-11T12:44:26;30.60;1.00
3756;DHT22;1893;52.526;13.360;2022-08-11T12:47:15;30.90;1.00
3756;DHT22;1893;52.526;13.360;2022-08-11T12:49:46;30.90;1.00
3756;DHT22;1893;52.526;13.360;2022-08-11T12:52:35;30.90;1.00
3756;DHT22;1893;52.526;13.360;2022-08-11T12:55:30;30.90;1.00
3756;DHT22;1893;52.526;13.360;2022-08-11T12:58:15;30.90;1.00
3756;DHT22;1893;52.526;13.360;2022-08-11T13:00:44;30.70;1.00
3756;DHT22;1893;52.526;13.360;2022-08-11T13:03:31;30.80;1.00
3756;DHT22;1893;52.526;13.360;2022-08-11T13:06:16;30.90;1.00
3756;DHT22;1893;52.526;13.360;2022-08-11T13:08:44;30.80;1.00
3756;DHT22;1893;52.526;13.360;2022-08-11T13:11:11;30.70;1.00
3756;DHT22;1893;52.526;13.360;2022-08-11T13:13:57;30.90;1.00
3756;DHT22;1893;52.526;13.360;2022-08-11T13:16:26;30.90;1.00
3756;DHT22;1893;52.526;13.360;2022-08-11T13:18:52;30.80;1.00
3756;DHT22;1893;52.526;13.360;2022-08-11T13:21:19;30.60;1.00
3756;DHT22;1893;52.526;13.360;2022-08-11T13:23:46;30.60;1.00
3756;DHT22;1893;52.526;13.360;2022-08-11T13:26:12;30.80;1.00
3756;DHT22;1893;52.526;13.360;2022-08-11T13:28:39;30.90;1.00
3756;DHT22;1893;52.526;13.360;2022-08-11T13:31:05;30.60;1.00
3756;DHT22;1893;52.526;13.360;2022-08-11T13:33:42;30.30;1.00
3756;DHT22;1893;52.526;13.360;2022-08-11T13:36:10;30.50;1.00
3756;DHT22;1893;52.526;13.360;2022-08-11T13:38:39;30.50;1.00
3756;DHT22;1893;52.526;13.360;2022-08-11T13:41:06;30.70;1.00
3756;DHT22;1893;52.526;13.360;2022-08-11T13:43:54;30.70;1.00
3756;DHT22;1893;52.526;13.360;2022-08-11T13:46:21;30.60;1.00
3756;DHT22;1893;52.526;13.360;2022-08-11T13:48:49;30.60;1.00
3756;DHT22;1893;52.526;13.360;2022-08-11T13:51:16;30.50;1.00
3756;DHT22;1893;52.526;13.360;2022-08-11T13:54:11;30.50;1.00
3756;DHT22;1893;52.526;13.360;2022-08-11T13:56:42;30.60;1.00
3756;DHT22;1893;52.526;13.360;2022-08-11T13:59:09;30.80;1.00
3756;DHT22;1893;52.526;13.360;2022-08-11T14:01:40;30.80;1.00
3756;DHT22;1893;52.526;13.360;2022-08-11T14:04:11;30.70;1.00
3756;DHT22;1893;52.526;13.360;2022-08-11T14:06:40;30.60;1.00
3756;DHT22;1893;52.526;13.360;2022-08-11T14:09:09;30.60;1.00
3756;DHT22;1893;52.526;13.360;2022-08-11T14:11:40;30.50;1.00
3756;DHT22;1893;52.526;13.360;2022-08-11T14:14:31;30.60;1.00
3756;DHT22;1893;52.526;13.360;2022-08-11T14:17:03;30.70;1.00
3756;DHT22;1893;52.526;13.360;2022-08-11T14:19:29;30.50;1.00
3756;DHT22;1893;52.526;13.360;2022-08-11T14:21:58;30.50;1.00
3756;DHT22;1893;52.526;13.360;2022-08-11T14:24:44;30.40;1.00
3756;DHT22;1893;52.526;13.360;2022-08-11T14:27:15;30.40;1.00
3756;DHT22;1893;52.526;13.360;2022-08-11T14:29:41;30.40;1.00
3756;DHT22;1893;52.526;13.360;2022-08-11T14:32:10;30.20;1.00
3756;DHT22;1893;52.526;13.360;2022-08-11T14:34:40;30.20;1.00
3756;DHT22;1893;52.526;13.360;2022-08-11T14:37:09;30.30;1.00
3756;DHT22;1893;52.526;13.360;2022-08-11T14:39:50;30.40;1.00
3756;DHT22;1893;52.526;13.360;2022-08-11T14:42:17;30.20;1.00
3756;DHT22;1893;52.526;13.360;2022-08-11T14:45:13;30.30;1.00
3756;DHT22;1893;52.526;13.360;2022-08-11T14:48:02;30.30;1.00
3756;DHT22;1893;52.526;13.360;2022-08-11T14:50:30;30.10;1.00
3756;DHT22;1893;52.526;13.360;2022-08-11T14:52:58;30.20;1.00
3756;DHT22;1893;52.526;13.360;2022-08-11T14:55:34;30.30;1.00
3756;DHT22;1893;52.526;13.360;2022-08-11T14:58:21;30.30;1.00
3756;DHT22;1893;52.526;13.360;2022-08-11T15:00:51;30.50;1.00
3756;DHT22;1893;52.526;13.360;2022-08-11T15:03:17;30.20;1.00
3756;DHT22;1893;52.526;13.360;2022-08-11T15:05:52;30.30;1.00
3756;DHT22;1893;52.526;13.360;2022-08-11T15:08:19;30.30;1.00
3756;DHT22;1893;52.526;13.360;2022-08-11T15:10:47;30.20;1.00
3756;DHT22;1893;52.526;13.360;2022-08-11T15:13:16;30.30;1.00
3756;DHT22;1893;52.526;13.360;2022-08-11T15:15:43;30.20;1.00
3756;DHT22;1893;52.526;13.360;2022-08-11T15:18:28;30.20;1.00
3756;DHT22;1893;52.526;13.360;2022-08-11T15:20:55;30.40;1.00
3756;DHT22;1893;52.526;13.360;2022-08-11T15:23:40;30.40;1.00
3756;DHT22;1893;52.526;13.360;2022-08-11T15:26:37;30.70;1.00
3756;DHT22;1893;52.526;13.360;2022-08-11T15:29:26;31.10;1.00
3756;DHT22;1893;52.526;13.360;2022-08-11T15:32:13;31.40;1.00
3756;DHT22;1893;52.526;13.360;2022-08-11T15:34:49;31.50;1.00
3756;DHT22;1893;52.526;13.360;2022-08-11T15:37:36;31.20;1.00
3756;DHT22;1893;52.526;13.360;2022-08-11T15:40:12;30.90;1.00
3756;DHT22;1893;52.526;13.360;2022-08-11T15:43:20;30.50;1.00
3756;DHT22;1893;52.526;13.360;2022-08-11T15:46:12;30.30;1.00
3756;DHT22;1893;52.526;13.360;2022-08-11T15:48:56;29.90;1.00
3756;DHT22;1893;52.526;13.360;2022-08-11T15:51:36;29.70;1.00
3756;DHT22;1893;52.526;13.360;2022-08-11T15:54:08;29.60;1.00
3756;DHT22;1893;52.526;13.360;2022-08-11T15:56:40;29.50;1.00
3756;DHT22;1893;52.526;13.360;2022-08-11T15:59:08;29.60;1.00
3756;DHT22;1893;52.526;13.360;2022-08-11T16:01:55;29.60;1.00
3756;DHT22;1893;52.526;13.360;2022-08-11T16:04:40;29.60;1.00
3756;DHT22;1893;52.526;13.360;2022-08-11T16:07:09;29.50;1.00
3756;DHT22;1893;52.526;13.360;2022-08-11T16:10:02;29.40;1.00
3756;DHT22;1893;52.526;13.360;2022-08-11T16:12:49;29.40;1.00
3756;DHT22;1893;52.526;13.360;2022-08-11T16:15:29;29.10;1.00
3756;DHT22;1893;52.526;13.360;2022-08-11T16:18:15;29.10;1.00
3756;DHT22;1893;52.526;13.360;2022-08-11T16:20:44;29.00;1.00
3756;DHT22;1893;52.526;13.360;2022-08-11T16:23:11;28.90;1.00
3756;DHT22;1893;52.526;13.360;2022-08-11T16:25:39;28.90;1.00
3756;DHT22;1893;52.526;13.360;2022-08-11T16:28:06;28.90;1.00
3756;DHT22;1893;52.526;13.360;2022-08-11T16:30:35;28.80;1.00
3756;DHT22;1893;52.526;13.360;2022-08-11T16:33:02;28.80;1.00
3756;DHT22;1893;52.526;13.360;2022-08-11T16:35:34;28.70;1.00
3756;DHT22;1893;52.526;13.360;2022-08-11T16:38:20;28.70;1.00
3756;DHT22;1893;52.526;13.360;2022-08-11T16:41:03;28.60;1.00
3756;DHT22;1893;52.526;13.360;2022-08-11T16:43:31;28.50;1.00
3756;DHT22;1893;52.526;13.360;2022-08-11T16:46:17;28.40;1.00
3756;DHT22;1893;52.526;13.360;2022-08-11T16:49:05;28.40;1.00
3756;DHT22;1893;52.526;13.360;2022-08-11T16:51:31;28.40;1.00
3756;DHT22;1893;52.526;13.360;2022-08-11T16:53:57;28.50;1.00
3756;DHT22;1893;52.526;13.360;2022-08-11T16:56:35;28.40;1.00
3756;DHT22;1893;52.526;13.360;2022-08-11T16:59:06;28.40;1.00
3756;DHT22;1893;52.526;13.360;2022-08-11T17:07:23;28.30;1.00
3756;DHT22;1893;52.526;13.360;2022-08-11T17:10:24;28.20;1.00
3756;DHT22;1893;52.526;13.360;2022-08-11T17:13:10;28.20;1.00
3756;DHT22;1893;52.526;13.360;2022-08-11T17:15:50;28.20;1.00
3756;DHT22;1893;52.526;13.360;2022-08-11T17:18:33;28.20;1.00
3756;DHT22;1893;52.526;13.360;2022-08-11T17:21:30;28.10;1.00
3756;DHT22;1893;52.526;13.360;2022-08-11T17:24:03;28.00;1.00
3756;DHT22;1893;52.526;13.360;2022-08-11T17:26:38;28.00;1.00
3756;DHT22;1893;52.526;13.360;2022-08-11T17:29:34;28.00;1.00
3756;DHT22;1893;52.526;13.360;2022-08-11T17:32:04;27.90;1.00
3756;DHT22;1893;52.526;13.360;2022-08-11T17:34:51;27.90;1.00
3756;DHT22;1893;52.526;13.360;2022-08-11T17:37:37;27.90;1.00
3756;DHT22;1893;52.526;13.360;2022-08-11T17:40:07;27.80;1.00
3756;DHT22;1893;52.526;13.360;2022-08-11T17:42:34;27.70;1.00
3756;DHT22;1893;52.526;13.360;2022-08-11T17:45:19;27.70;1.00
3756;DHT22;1893;52.526;13.360;2022-08-11T17:48:04;27.70;1.00
3756;DHT22;1893;52.526;13.360;2022-08-11T17:50:51;27.60;1.00
3756;DHT22;1893;52.526;13.360;2022-08-11T17:53:17;27.50;1.00
3756;DHT22;1893;52.526;13.360;2022-08-11T17:56:02;27.40;1.00
3756;DHT22;1893;52.526;13.360;2022-08-11T17:58:49;27.40;1.00
3756;DHT22;1893;52.526;13.360;2022-08-11T18:01:38;27.30;1.00
3756;DHT22;1893;52.526;13.360;2022-08-11T18:04:06;27.30;1.00
3756;DHT22;1893;52.526;13.360;2022-08-11T18:06:35;27.30;1.00
3756;DHT22;1893;52.526;13.360;2022-08-11T18:09:08;27.20;1.00
3756;DHT22;1893;52.526;13.360;2022-08-11T18:11:54;27.20;1.00
3756;DHT22;1893;52.526;13.360;2022-08-11T18:14:41;27.10;1.00
3756;DHT22;1893;52.526;13.360;2022-08-11T18:17:26;27.00;1.00
3756;DHT22;1893;52.526;13.360;2022-08-11T18:20:10;27.00;1.00
3756;DHT22;1893;52.526;13.360;2022-08-11T18:22:55;27.00;1.00
3756;DHT22;1893;52.526;13.360;2022-08-11T18:25:43;26.90;1.00
3756;DHT22;1893;52.526;13.360;2022-08-11T18:28:50;26.90;1.00
3756;DHT22;1893;52.526;13.360;2022-08-11T18:31:38;26.80;1.00
3756;DHT22;1893;52.526;13.360;2022-08-11T18:34:31;26.70;1.00
3756;DHT22;1893;52.526;13.360;2022-08-11T18:37:23;26.70;1.00
3756;DHT22;1893;52.526;13.360;2022-08-11T18:40:13;26.50;1.00
3756;DHT22;1893;52.526;13.360;2022-08-11T18:43:03;26.40;1.00
3756;DHT22;1893;52.526;13.360;2022-08-11T18:45:51;26.40;1.00
3756;DHT22;1893;52.526;13.360;2022-08-11T18:48:38;26.30;1.00
3756;DHT22;1893;52.526;13.360;2022-08-11T18:51:24;26.20;1.00
3756;DHT22;1893;52.526;13.360;2022-08-11T18:54:10;26.20;1.00
3756;DHT22;1893;52.526;13.360;2022-08-11T18:56:58;26.20;1.00
3756;DHT22;1893;52.526;13.360;2022-08-11T18:59:45;26.10;1.00
3756;DHT22;1893;52.526;13.360;2022-08-11T19:02:31;26.00;1.00
3756;DHT22;1893;52.526;13.360;2022-08-11T19:05:18;25.90;1.00
3756;DHT22;1893;52.526;13.360;2022-08-11T19:08:04;25.90;1.00
3756;DHT22;1893;52.526;13.360;2022-08-11T19:10:50;25.80;1.00
3756;DHT22;1893;52.526;13.360;2022-08-11T19:13:35;25.80;1.00
3756;DHT22;1893;52.526;13.360;2022-08-11T19:16:21;25.70;1.00
3756;DHT22;1893;52.526;13.360;2022-08-11T19:19:08;25.60;1.00
3756;DHT22;1893;52.526;13.360;2022-08-11T19:21:53;25.60;1.00
3756;DHT22;1893;52.526;13.360;2022-08-11T19:24:38;25.60;1.00
3756;DHT22;1893;52.526;13.360;2022-08-11T19:27:25;25.50;1.00
3756;DHT22;1893;52.526;13.360;2022-08-11T19:30:11;25.40;1.00
3756;DHT22;1893;52.526;13.360;2022-08-11T19:32:57;25.40;1.00
3756;DHT22;1893;52.526;13.360;2022-08-11T19:35:43;25.30;1.00
3756;DHT22;1893;52.526;13.360;2022-08-11T19:38:28;25.20;1.00
3756;DHT22;1893;52.526;13.360;2022-08-11T19:41:14;25.10;1.00
3756;DHT22;1893;52.526;13.360;2022-08-11T19:44:00;25.00;1.00
3756;DHT22;1893;52.526;13.360;2022-08-11T19:46:45;24.90;1.00
3756;DHT22;1893;52.526;13.360;2022-08-11T19:49:30;24.80;1.00
3756;DHT22;1893;52.526;13.360;2022-08-11T19:52:16;24.70;1.00
3756;DHT22;1893;52.526;13.360;2022-08-11T19:55:02;24.60;1.00
3756;DHT22;1893;52.526;13.360;2022-08-11T19:57:47;24.50;1.00
3756;DHT22;1893;52.526;13.360;2022-08-11T20:00:33;24.40;1.00
3756;DHT22;1893;52.526;13.360;2022-08-11T20:03:18;24.30;1.00
3756;DHT22;1893;52.526;13.360;2022-08-11T20:06:06;24.20;1.00
3756;DHT22;1893;52.526;13.360;2022-08-11T20:08:57;24.10;1.00
3756;DHT22;1893;52.526;13.360;2022-08-11T20:11:45;24.10;1.00
3756;DHT22;1893;52.526;13.360;2022-08-11T20:14:32;24.00;1.00
3756;DHT22;1893;52.526;13.360;2022-08-11T20:17:18;24.00;1.00
3756;DHT22;1893;52.526;13.360;2022-08-11T20:20:05;24.10;1.00
3756;DHT22;1893;52.526;13.360;2022-08-11T20:22:52;23.90;1.00